METAR Data

Data at: 1106 UTC 21 Apr 2021

METAR for:KEEN (Keene/Hopkins Arpt, NH, US)
Text:KEEN 211056Z AUTO 00000KT 10SM FEW080 BKN090 01/01 A2981 RMK AO2 SLP100 T00060006 FZRANO $
Temperature: 0.6°C ( 33°F)
Dewpoint: 0.6°C ( 33°F) [RH = 100%]
Pressure (altimeter):29.81 inches Hg (1009.6 mb) [Sea level pressure: 1010.0 mb]
Winds:calm
Visibility:10 or more sm (16+ km)
Ceiling:9000 feet AGL
Clouds: few clouds at 8000 feet AGL, broken clouds at 9000 feet AGL
QC Flag:automated observation with no human augmentation; SOME DATA ABOVE MAY BE INACCURATE!!!"$" is an indication the sensor requires maintenance.